Airport Name : Northolt

Other Name : Northolt

ICAO : EGWU

IATA : NHT

FAA :

Latitude : 51.553

Longitude : -0.418167

Country : United Kingdom

Local Date and Time : 21 Apr 2024 06:23

 

TAF (Terminal Aerodrome Forecast)

TAF EGWU 201950Z 2021/2115 03008KT CAVOK

 

METAR (METeorological Aerodrome Report)

EGWU 210450Z AUTO 36007KT 9999 NCD 05/01 Q1029

EGWU 210420Z AUTO 36006KT 9999 NCD 05/01 Q1029

EGWU 210350Z AUTO 01006KT 9999 NCD 05/01 Q1029

EGWU 210320Z AUTO 02009KT 9999 SCT054/// 06/01 Q1029

EGWU 210250Z AUTO 01009KT 9999 FEW042/// BKN051/// 07/01 Q1029

EGWU 210220Z AUTO 01008KT 9999 OVC040/// 07/01 Q1029

EGWU 210150Z AUTO 36007KT 9999 OVC039/// 07/01 Q1029